Terminal Aerodrome Forecast
Issued by NWS Billings, MT

Home | Current Version | Previous Version | Text Only | Print | Product List | Glossary On
Versions: 1 2 3 4 5 6 7 8 9 10 11 12 13
000
FTUS45 KBYZ 220527
TAFBIL
TAF
KBIL 220527Z 2206/2306 03010KT P6SM BKN120
     FM221500 08007KT P6SM SCT100
     FM230100 05015KT P6SM BKN100
     FM230500 03015KT 6SM -SHRA SCT030 BKN050 OVC080=

USA.gov is the U.S. government's official web portal to all federal, state and local government web resources and services.